Terminal Aerodrome Forecast
Issued by NWS

Home | Current Version | Previous Version | Graphics & Text | Print | Product List | Glossary On
Versions: 1 2 3 4 5 6 7 8 9 10 11 12 13 14 15 16 17 18
000
FTUS43 KIWX 100520
TAFSBN
TAF
KSBN 100520Z 1006/1106 25010KT 6SM -SHSN OVC050
     FM101700 25010KT P6SM BKN080
     FM110000 21007KT 5SM -SN OVC030
     FM110300 18005KT 1 1/2SM -SN OVC015=

USA.gov is the U.S. government's official web portal to all federal, state and local government web resources and services.